sensor_id;sensor_type;location;lat;lon;timestamp;temperature;humidity
19033;DHT22;9649;51.042;13.804;2022-09-29T00:03:06;5.80;99.90
19033;DHT22;9649;51.042;13.804;2022-09-29T00:08:11;5.80;99.90
19033;DHT22;9649;51.042;13.804;2022-09-29T00:13:15;5.70;99.90
19033;DHT22;9649;51.042;13.804;2022-09-29T00:18:18;5.70;99.90
19033;DHT22;9649;51.042;13.804;2022-09-29T00:23:23;5.60;99.90
19033;DHT22;9649;51.042;13.804;2022-09-29T00:28:26;5.80;99.90
19033;DHT22;9649;51.042;13.804;2022-09-29T00:33:30;5.70;99.90
19033;DHT22;9649;51.042;13.804;2022-09-29T00:38:35;5.60;99.90
19033;DHT22;9649;51.042;13.804;2022-09-29T00:43:50;5.40;99.90
19033;DHT22;9649;51.042;13.804;2022-09-29T00:48:55;5.40;99.90
19033;DHT22;9649;51.042;13.804;2022-09-29T00:54:01;5.50;99.90
19033;DHT22;9649;51.042;13.804;2022-09-29T00:59:07;5.50;99.90
19033;DHT22;9649;51.042;13.804;2022-09-29T01:04:14;5.20;99.90
19033;DHT22;9649;51.042;13.804;2022-09-29T01:09:24;5.10;99.90
19033;DHT22;9649;51.042;13.804;2022-09-29T01:14:29;5.30;99.90
19033;DHT22;9649;51.042;13.804;2022-09-29T01:19:42;5.50;99.90
19033;DHT22;9649;51.042;13.804;2022-09-29T01:24:58;5.40;99.90
19033;DHT22;9649;51.042;13.804;2022-09-29T01:30:14;5.30;99.90
19033;DHT22;9649;51.042;13.804;2022-09-29T01:35:25;5.20;99.90
19033;DHT22;9649;51.042;13.804;2022-09-29T01:40:36;5.10;99.90
19033;DHT22;9649;51.042;13.804;2022-09-29T01:45:43;5.30;99.90
19033;DHT22;9649;51.042;13.804;2022-09-29T01:50:54;5.20;99.90
19033;DHT22;9649;51.042;13.804;2022-09-29T01:56:02;5.20;99.90
19033;DHT22;9649;51.042;13.804;2022-09-29T02:01:10;5.10;99.90
19033;DHT22;9649;51.042;13.804;2022-09-29T02:06:19;5.00;99.90
19033;DHT22;9649;51.042;13.804;2022-09-29T02:11:23;4.80;99.90
19033;DHT22;9649;51.042;13.804;2022-09-29T02:16:29;4.90;99.90
19033;DHT22;9649;51.042;13.804;2022-09-29T02:21:34;4.80;99.90
19033;DHT22;9649;51.042;13.804;2022-09-29T02:26:37;4.90;99.90
19033;DHT22;9649;51.042;13.804;2022-09-29T02:31:42;4.90;99.90
19033;DHT22;9649;51.042;13.804;2022-09-29T02:36:56;4.90;99.90
19033;DHT22;9649;51.042;13.804;2022-09-29T02:42:07;4.70;99.90
19033;DHT22;9649;51.042;13.804;2022-09-29T02:47:34;4.80;99.90
19033;DHT22;9649;51.042;13.804;2022-09-29T02:52:45;4.80;99.90
19033;DHT22;9649;51.042;13.804;2022-09-29T02:57:57;4.90;99.90
19033;DHT22;9649;51.042;13.804;2022-09-29T03:03:01;5.10;99.90
19033;DHT22;9649;51.042;13.804;2022-09-29T03:08:05;5.20;99.90
19033;DHT22;9649;51.042;13.804;2022-09-29T03:13:08;5.40;99.90
19033;DHT22;9649;51.042;13.804;2022-09-29T03:18:11;5.50;99.90
19033;DHT22;9649;51.042;13.804;2022-09-29T03:23:15;5.60;99.90
19033;DHT22;9649;51.042;13.804;2022-09-29T03:28:18;5.60;99.90
19033;DHT22;9649;51.042;13.804;2022-09-29T03:33:21;5.70;99.90
19033;DHT22;9649;51.042;13.804;2022-09-29T03:38:25;5.70;99.90
19033;DHT22;9649;51.042;13.804;2022-09-29T03:43:27;5.70;99.90
19033;DHT22;9649;51.042;13.804;2022-09-29T03:48:30;5.80;99.90
19033;DHT22;9649;51.042;13.804;2022-09-29T03:53:36;5.90;99.90
19033;DHT22;9649;51.042;13.804;2022-09-29T03:58:39;5.90;99.90
19033;DHT22;9649;51.042;13.804;2022-09-29T04:03:42;6.00;99.90
19033;DHT22;9649;51.042;13.804;2022-09-29T04:08:46;6.00;99.90
19033;DHT22;9649;51.042;13.804;2022-09-29T04:13:49;5.90;99.90
19033;DHT22;9649;51.042;13.804;2022-09-29T04:18:53;5.90;99.90
19033;DHT22;9649;51.042;13.804;2022-09-29T04:23:57;5.80;99.90
19033;DHT22;9649;51.042;13.804;2022-09-29T04:29:00;5.70;99.90
19033;DHT22;9649;51.042;13.804;2022-09-29T04:34:03;5.90;99.90
19033;DHT22;9649;51.042;13.804;2022-09-29T04:39:07;5.90;99.90
19033;DHT22;9649;51.042;13.804;2022-09-29T04:44:10;6.20;99.90
19033;DHT22;9649;51.042;13.804;2022-09-29T04:49:13;6.30;99.90
19033;DHT22;9649;51.042;13.804;2022-09-29T04:54:18;6.20;99.90
19033;DHT22;9649;51.042;13.804;2022-09-29T04:59:21;6.20;99.90
19033;DHT22;9649;51.042;13.804;2022-09-29T05:04:24;6.20;99.90
19033;DHT22;9649;51.042;13.804;2022-09-29T05:09:28;6.30;99.90
19033;DHT22;9649;51.042;13.804;2022-09-29T05:14:34;6.40;99.90
19033;DHT22;9649;51.042;13.804;2022-09-29T05:19:37;6.50;99.90
19033;DHT22;9649;51.042;13.804;2022-09-29T05:24:41;6.60;99.90
19033;DHT22;9649;51.042;13.804;2022-09-29T05:29:44;6.60;99.90
19033;DHT22;9649;51.042;13.804;2022-09-29T05:34:46;6.60;99.90
19033;DHT22;9649;51.042;13.804;2022-09-29T05:39:52;6.60;99.90
19033;DHT22;9649;51.042;13.804;2022-09-29T05:44:54;6.70;99.90
19033;DHT22;9649;51.042;13.804;2022-09-29T05:49:57;6.90;99.90
19033;DHT22;9649;51.042;13.804;2022-09-29T05:55:02;6.80;99.90
19033;DHT22;9649;51.042;13.804;2022-09-29T06:00:06;6.80;99.90
19033;DHT22;9649;51.042;13.804;2022-09-29T06:05:09;7.00;99.90
19033;DHT22;9649;51.042;13.804;2022-09-29T06:10:13;7.20;99.90
19033;DHT22;9649;51.042;13.804;2022-09-29T06:15:16;7.40;99.90
19033;DHT22;9649;51.042;13.804;2022-09-29T06:20:19;7.60;99.90
19033;DHT22;9649;51.042;13.804;2022-09-29T06:25:23;7.90;99.90
19033;DHT22;9649;51.042;13.804;2022-09-29T06:30:26;8.00;99.90
19033;DHT22;9649;51.042;13.804;2022-09-29T06:35:29;7.90;99.90
19033;DHT22;9649;51.042;13.804;2022-09-29T06:40:50;7.80;99.90
19033;DHT22;9649;51.042;13.804;2022-09-29T06:45:55;7.80;99.90
19033;DHT22;9649;51.042;13.804;2022-09-29T06:50:58;8.00;99.90
19033;DHT22;9649;51.042;13.804;2022-09-29T06:56:12;8.60;99.90
19033;DHT22;9649;51.042;13.804;2022-09-29T07:01:15;9.60;99.90
19033;DHT22;9649;51.042;13.804;2022-09-29T07:06:17;10.50;99.90
19033;DHT22;9649;51.042;13.804;2022-09-29T07:11:23;10.70;99.90
19033;DHT22;9649;51.042;13.804;2022-09-29T07:16:26;10.80;99.90
19033;DHT22;9649;51.042;13.804;2022-09-29T07:21:29;10.90;99.90
19033;DHT22;9649;51.042;13.804;2022-09-29T07:26:34;10.70;99.90
19033;DHT22;9649;51.042;13.804;2022-09-29T07:31:38;10.50;99.90
19033;DHT22;9649;51.042;13.804;2022-09-29T07:36:51;10.20;99.90
19033;DHT22;9649;51.042;13.804;2022-09-29T07:41:55;10.10;99.90
19033;DHT22;9649;51.042;13.804;2022-09-29T07:46:59;12.10;99.90
19033;DHT22;9649;51.042;13.804;2022-09-29T07:52:02;17.40;1.00
19033;DHT22;9649;51.042;13.804;2022-09-29T07:57:06;20.80;35.90
19033;DHT22;9649;51.042;13.804;2022-09-29T08:02:09;19.80;1.00
19033;DHT22;9649;51.042;13.804;2022-09-29T08:07:12;19.90;1.00
19033;DHT22;9649;51.042;13.804;2022-09-29T08:12:16;23.00;1.00
19033;DHT22;9649;51.042;13.804;2022-09-29T08:17:19;24.20;1.00
19033;DHT22;9649;51.042;13.804;2022-09-29T08:22:22;26.40;1.00
19033;DHT22;9649;51.042;13.804;2022-09-29T08:27:26;26.20;1.00
19033;DHT22;9649;51.042;13.804;2022-09-29T08:32:29;27.10;1.00
19033;DHT22;9649;51.042;13.804;2022-09-29T08:37:32;27.30;1.00
19033;DHT22;9649;51.042;13.804;2022-09-29T08:42:45;27.60;1.00
19033;DHT22;9649;51.042;13.804;2022-09-29T08:47:50;26.00;1.00
19033;DHT22;9649;51.042;13.804;2022-09-29T08:52:57;27.60;1.00
19033;DHT22;9649;51.042;13.804;2022-09-29T08:58:02;27.90;99.90
19033;DHT22;9649;51.042;13.804;2022-09-29T09:03:52;32.00;99.90
19033;DHT22;9649;51.042;13.804;2022-09-29T09:09:22;36.00;99.90
19033;DHT22;9649;51.042;13.804;2022-09-29T09:14:45;35.60;99.90
19033;DHT22;9649;51.042;13.804;2022-09-29T09:20:03;36.30;99.90
19033;DHT22;9649;51.042;13.804;2022-09-29T09:25:20;38.50;99.90
19033;DHT22;9649;51.042;13.804;2022-09-29T09:30:30;39.60;99.90
19033;DHT22;9649;51.042;13.804;2022-09-29T09:35:40;37.80;99.90
19033;DHT22;9649;51.042;13.804;2022-09-29T09:40:57;33.30;99.90
19033;DHT22;9649;51.042;13.804;2022-09-29T09:46:08;36.60;99.90
19033;DHT22;9649;51.042;13.804;2022-09-29T09:51:32;37.80;99.90
19033;DHT22;9649;51.042;13.804;2022-09-29T09:56:47;39.50;99.90
19033;DHT22;9649;51.042;13.804;2022-09-29T10:01:53;39.80;99.90
19033;DHT22;9649;51.042;13.804;2022-09-29T10:06:56;42.50;99.90
19033;DHT22;9649;51.042;13.804;2022-09-29T10:12:00;39.30;99.90
19033;DHT22;9649;51.042;13.804;2022-09-29T10:17:06;38.90;99.90
19033;DHT22;9649;51.042;13.804;2022-09-29T10:22:13;32.00;99.90
19033;DHT22;9649;51.042;13.804;2022-09-29T10:27:18;33.00;99.90
19033;DHT22;9649;51.042;13.804;2022-09-29T10:32:26;29.90;99.90
19033;DHT22;9649;51.042;13.804;2022-09-29T10:37:38;25.00;99.90
19033;DHT22;9649;51.042;13.804;2022-09-29T10:42:44;21.90;99.90
19033;DHT22;9649;51.042;13.804;2022-09-29T10:48:07;20.80;99.90
19033;DHT22;9649;51.042;13.804;2022-09-29T10:53:20;21.80;99.90
19033;DHT22;9649;51.042;13.804;2022-09-29T10:58:27;25.00;99.90
19033;DHT22;9649;51.042;13.804;2022-09-29T11:03:55;28.10;99.90
19033;DHT22;9649;51.042;13.804;2022-09-29T11:09:04;30.00;99.90
19033;DHT22;9649;51.042;13.804;2022-09-29T11:14:22;36.10;99.90
19033;DHT22;9649;51.042;13.804;2022-09-29T11:19:29;34.10;99.90
19033;DHT22;9649;51.042;13.804;2022-09-29T11:24:52;29.70;99.90
19033;DHT22;9649;51.042;13.804;2022-09-29T11:30:00;25.50;99.90
19033;DHT22;9649;51.042;13.804;2022-09-29T11:35:16;22.80;99.90
19033;DHT22;9649;51.042;13.804;2022-09-29T11:40:28;21.50;99.90
19033;DHT22;9649;51.042;13.804;2022-09-29T11:45:37;21.00;99.90
19033;DHT22;9649;51.042;13.804;2022-09-29T11:50:50;21.40;99.90
19033;DHT22;9649;51.042;13.804;2022-09-29T11:56:15;21.60;99.90
19033;DHT22;9649;51.042;13.804;2022-09-29T12:01:30;21.40;99.90
19033;DHT22;9649;51.042;13.804;2022-09-29T12:06:51;21.10;99.90
19033;DHT22;9649;51.042;13.804;2022-09-29T12:12:01;20.30;1.00
19033;DHT22;9649;51.042;13.804;2022-09-29T12:17:28;19.60;1.00
19033;DHT22;9649;51.042;13.804;2022-09-29T12:22:34;19.30;1.00
19033;DHT22;9649;51.042;13.804;2022-09-29T12:27:41;19.70;1.00
19033;DHT22;9649;51.042;13.804;2022-09-29T12:32:50;20.40;1.00
19033;DHT22;9649;51.042;13.804;2022-09-29T12:38:01;21.20;1.00
19033;DHT22;9649;51.042;13.804;2022-09-29T12:43:11;23.10;1.00
19033;DHT22;9649;51.042;13.804;2022-09-29T12:48:33;22.40;1.00
19033;DHT22;9649;51.042;13.804;2022-09-29T12:53:50;20.10;1.00
19033;DHT22;9649;51.042;13.804;2022-09-29T12:58:58;19.20;1.00
19033;DHT22;9649;51.042;13.804;2022-09-29T13:04:30;18.80;1.00
19033;DHT22;9649;51.042;13.804;2022-09-29T13:09:55;18.80;1.00
19033;DHT22;9649;51.042;13.804;2022-09-29T13:15:16;18.70;1.00
19033;DHT22;9649;51.042;13.804;2022-09-29T13:26:00;19.60;1.00
19033;DHT22;9649;51.042;13.804;2022-09-29T13:31:10;20.00;1.00
19033;DHT22;9649;51.042;13.804;2022-09-29T13:36:21;19.60;1.00
19033;DHT22;9649;51.042;13.804;2022-09-29T13:41:35;19.30;1.00
19033;DHT22;9649;51.042;13.804;2022-09-29T13:46:39;19.20;1.00
19033;DHT22;9649;51.042;13.804;2022-09-29T13:51:47;19.50;1.00
19033;DHT22;9649;51.042;13.804;2022-09-29T14:02:33;21.00;1.00
19033;DHT22;9649;51.042;13.804;2022-09-29T14:07:40;21.30;1.00
19033;DHT22;9649;51.042;13.804;2022-09-29T14:12:52;20.90;1.00
19033;DHT22;9649;51.042;13.804;2022-09-29T14:17:59;24.70;1.00
19033;DHT22;9649;51.042;13.804;2022-09-29T14:23:04;30.90;1.00
19033;DHT22;9649;51.042;13.804;2022-09-29T14:28:11;33.70;99.90
19033;DHT22;9649;51.042;13.804;2022-09-29T14:33:17;33.70;99.90
19033;DHT22;9649;51.042;13.804;2022-09-29T14:38:24;34.70;99.90
19033;DHT22;9649;51.042;13.804;2022-09-29T14:43:37;30.20;99.90
19033;DHT22;9649;51.042;13.804;2022-09-29T14:48:54;25.40;99.90
19033;DHT22;9649;51.042;13.804;2022-09-29T14:54:29;23.10;99.90
19033;DHT22;9649;51.042;13.804;2022-09-29T14:59:52;21.20;99.90
19033;DHT22;9649;51.042;13.804;2022-09-29T15:04:57;19.90;1.00
19033;DHT22;9649;51.042;13.804;2022-09-29T15:09:59;19.00;1.00
19033;DHT22;9649;51.042;13.804;2022-09-29T15:15:05;18.20;1.00
19033;DHT22;9649;51.042;13.804;2022-09-29T15:20:16;19.80;1.00
19033;DHT22;9649;51.042;13.804;2022-09-29T15:25:25;20.80;1.00
19033;DHT22;9649;51.042;13.804;2022-09-29T15:30:31;22.20;1.00
19033;DHT22;9649;51.042;13.804;2022-09-29T15:35:40;21.40;1.00
19033;DHT22;9649;51.042;13.804;2022-09-29T15:40:52;19.80;1.00
19033;DHT22;9649;51.042;13.804;2022-09-29T15:45:58;18.60;1.00
19033;DHT22;9649;51.042;13.804;2022-09-29T15:51:01;17.90;1.00
19033;DHT22;9649;51.042;13.804;2022-09-29T15:56:04;17.40;95.20
19033;DHT22;9649;51.042;13.804;2022-09-29T16:01:11;16.60;1.00
19033;DHT22;9649;51.042;13.804;2022-09-29T16:06:21;16.20;1.00
19033;DHT22;9649;51.042;13.804;2022-09-29T16:11:30;15.80;99.90
19033;DHT22;9649;51.042;13.804;2022-09-29T16:16:39;15.40;1.00
19033;DHT22;9649;51.042;13.804;2022-09-29T16:21:43;15.20;1.00
19033;DHT22;9649;51.042;13.804;2022-09-29T16:26:47;14.90;62.10
19033;DHT22;9649;51.042;13.804;2022-09-29T16:31:52;14.70;1.00
19033;DHT22;9649;51.042;13.804;2022-09-29T16:36:57;14.50;99.90
19033;DHT22;9649;51.042;13.804;2022-09-29T16:42:02;14.20;1.00
19033;DHT22;9649;51.042;13.804;2022-09-29T16:47:14;13.90;1.00
19033;DHT22;9649;51.042;13.804;2022-09-29T16:52:20;13.70;1.00
19033;DHT22;9649;51.042;13.804;2022-09-29T16:57:27;13.50;99.90
19033;DHT22;9649;51.042;13.804;2022-09-29T17:02:32;13.40;1.00
19033;DHT22;9649;51.042;13.804;2022-09-29T17:07:38;13.20;1.00
19033;DHT22;9649;51.042;13.804;2022-09-29T17:12:42;13.10;99.90
19033;DHT22;9649;51.042;13.804;2022-09-29T17:17:48;12.90;99.90
19033;DHT22;9649;51.042;13.804;2022-09-29T17:22:51;12.80;1.00
19033;DHT22;9649;51.042;13.804;2022-09-29T17:27:54;12.60;1.00
19033;DHT22;9649;51.042;13.804;2022-09-29T17:33:18;12.50;1.00
19033;DHT22;9649;51.042;13.804;2022-09-29T17:38:21;12.10;1.00
19033;DHT22;9649;51.042;13.804;2022-09-29T17:43:24;12.00;1.00
19033;DHT22;9649;51.042;13.804;2022-09-29T17:48:29;12.10;1.00
19033;DHT22;9649;51.042;13.804;2022-09-29T17:53:34;12.20;1.00
19033;DHT22;9649;51.042;13.804;2022-09-29T17:58:36;12.40;1.00
19033;DHT22;9649;51.042;13.804;2022-09-29T18:03:40;12.40;1.00
19033;DHT22;9649;51.042;13.804;2022-09-29T18:08:44;12.40;1.00
19033;DHT22;9649;51.042;13.804;2022-09-29T18:13:53;12.40;1.00
19033;DHT22;9649;51.042;13.804;2022-09-29T18:18:58;12.40;1.00
19033;DHT22;9649;51.042;13.804;2022-09-29T18:24:00;12.30;1.00
19033;DHT22;9649;51.042;13.804;2022-09-29T18:29:12;12.30;1.00
19033;DHT22;9649;51.042;13.804;2022-09-29T18:34:18;12.30;1.00
19033;DHT22;9649;51.042;13.804;2022-09-29T18:39:22;12.20;1.00
19033;DHT22;9649;51.042;13.804;2022-09-29T18:44:25;12.00;1.00
19033;DHT22;9649;51.042;13.804;2022-09-29T18:49:31;11.80;37.80
19033;DHT22;9649;51.042;13.804;2022-09-29T18:54:34;11.70;70.10
19033;DHT22;9649;51.042;13.804;2022-09-29T18:59:37;11.70;85.50
19033;DHT22;9649;51.042;13.804;2022-09-29T19:04:41;11.90;16.90
19033;DHT22;9649;51.042;13.804;2022-09-29T19:09:44;12.20;1.00
19033;DHT22;9649;51.042;13.804;2022-09-29T19:14:47;12.20;1.00
19033;DHT22;9649;51.042;13.804;2022-09-29T19:19:51;12.10;1.00
19033;DHT22;9649;51.042;13.804;2022-09-29T19:24:54;12.00;1.00
19033;DHT22;9649;51.042;13.804;2022-09-29T19:29:57;11.90;1.00
19033;DHT22;9649;51.042;13.804;2022-09-29T19:35:07;11.90;1.00
19033;DHT22;9649;51.042;13.804;2022-09-29T19:40:15;11.90;1.00
19033;DHT22;9649;51.042;13.804;2022-09-29T19:45:18;11.80;1.00
19033;DHT22;9649;51.042;13.804;2022-09-29T19:50:23;11.70;1.00
19033;DHT22;9649;51.042;13.804;2022-09-29T19:55:44;11.60;31.00
19033;DHT22;9649;51.042;13.804;2022-09-29T20:00:47;11.70;5.00
19033;DHT22;9649;51.042;13.804;2022-09-29T20:05:57;11.60;23.60
19033;DHT22;9649;51.042;13.804;2022-09-29T20:11:07;11.50;41.80
19033;DHT22;9649;51.042;13.804;2022-09-29T20:16:14;11.40;72.40
19033;DHT22;9649;51.042;13.804;2022-09-29T20:21:19;11.40;80.50
19033;DHT22;9649;51.042;13.804;2022-09-29T20:26:22;11.30;99.30
19033;DHT22;9649;51.042;13.804;2022-09-29T20:31:26;11.10;99.90
19033;DHT22;9649;51.042;13.804;2022-09-29T20:36:35;11.10;99.90
19033;DHT22;9649;51.042;13.804;2022-09-29T20:41:38;10.90;99.90
19033;DHT22;9649;51.042;13.804;2022-09-29T20:46:42;10.60;99.90
19033;DHT22;9649;51.042;13.804;2022-09-29T20:51:46;10.40;99.90
19033;DHT22;9649;51.042;13.804;2022-09-29T20:56:49;10.10;99.90
19033;DHT22;9649;51.042;13.804;2022-09-29T21:01:52;9.80;99.90
19033;DHT22;9649;51.042;13.804;2022-09-29T21:06:57;9.90;99.90
19033;DHT22;9649;51.042;13.804;2022-09-29T21:12:00;10.00;99.90
19033;DHT22;9649;51.042;13.804;2022-09-29T21:17:03;10.00;99.90
19033;DHT22;9649;51.042;13.804;2022-09-29T21:22:08;10.10;99.90
19033;DHT22;9649;51.042;13.804;2022-09-29T21:27:11;10.20;99.90
19033;DHT22;9649;51.042;13.804;2022-09-29T21:32:13;10.00;99.90
19033;DHT22;9649;51.042;13.804;2022-09-29T21:37:17;9.90;99.90
19033;DHT22;9649;51.042;13.804;2022-09-29T21:42:20;9.70;99.90
19033;DHT22;9649;51.042;13.804;2022-09-29T21:47:23;9.60;99.90
19033;DHT22;9649;51.042;13.804;2022-09-29T21:52:48;9.60;99.90
19033;DHT22;9649;51.042;13.804;2022-09-29T21:57:50;9.50;99.90
19033;DHT22;9649;51.042;13.804;2022-09-29T22:02:54;9.30;99.90
19033;DHT22;9649;51.042;13.804;2022-09-29T22:07:59;9.20;99.90
19033;DHT22;9649;51.042;13.804;2022-09-29T22:13:01;9.10;99.90
19033;DHT22;9649;51.042;13.804;2022-09-29T22:18:04;9.10;99.90
19033;DHT22;9649;51.042;13.804;2022-09-29T22:23:08;9.10;99.90
19033;DHT22;9649;51.042;13.804;2022-09-29T22:28:11;9.10;99.90
19033;DHT22;9649;51.042;13.804;2022-09-29T22:33:14;9.10;99.90
19033;DHT22;9649;51.042;13.804;2022-09-29T22:38:19;9.10;99.90
19033;DHT22;9649;51.042;13.804;2022-09-29T22:43:21;9.10;99.90
19033;DHT22;9649;51.042;13.804;2022-09-29T22:48:24;9.10;99.90
19033;DHT22;9649;51.042;13.804;2022-09-29T22:53:29;9.10;99.90
19033;DHT22;9649;51.042;13.804;2022-09-29T22:58:31;9.20;99.90
19033;DHT22;9649;51.042;13.804;2022-09-29T23:03:34;9.10;99.90
19033;DHT22;9649;51.042;13.804;2022-09-29T23:08:38;9.20;99.90
19033;DHT22;9649;51.042;13.804;2022-09-29T23:13:42;9.20;99.90
19033;DHT22;9649;51.042;13.804;2022-09-29T23:18:45;9.10;99.90
19033;DHT22;9649;51.042;13.804;2022-09-29T23:23:53;9.10;99.90
19033;DHT22;9649;51.042;13.804;2022-09-29T23:28:56;9.20;99.90
19033;DHT22;9649;51.042;13.804;2022-09-29T23:34:00;9.10;99.90
19033;DHT22;9649;51.042;13.804;2022-09-29T23:39:04;9.00;99.90
19033;DHT22;9649;51.042;13.804;2022-09-29T23:44:16;8.90;99.90
19033;DHT22;9649;51.042;13.804;2022-09-29T23:49:20;8.80;99.90
19033;DHT22;9649;51.042;13.804;2022-09-29T23:54:26;8.90;99.90
19033;DHT22;9649;51.042;13.804;2022-09-29T23:59:29;8.90;99.90
